Time;durP1;ratioP1;P1;durP2;ratioP2;P2;SDS_P1;SDS_P2;PMS_P1;PMS_P2;Temp;Humidity;BMP_temperature;BMP_pressure;BME280_temperature;BME280_humidity;BME280_pressure;Samples;Min_cycle;Max_cycle;Signal;HPM_P1;HPM_P2
2022/03/22 00:00:25;;;;;;;432.08;159.57;;;-0.50;99.90;;;;;;5074305;28;20040;-52
2022/03/22 00:02:51;;;;;;;403.45;151.23;;;-0.50;99.90;;;;;;5074331;28;20078;-52
2022/03/22 00:05:16;;;;;;;467.73;164.20;;;-0.40;99.90;;;;;;5074128;28;20389;-52
2022/03/22 00:07:43;;;;;;;326.45;128.60;;;-0.40;99.90;;;;;;5074144;28;20025;-52
2022/03/22 00:10:09;;;;;;;403.40;145.23;;;-0.50;99.90;;;;;;5074105;28;20035;-52
2022/03/22 00:12:36;;;;;;;394.90;143.73;;;-0.50;99.90;;;;;;5074060;28;20062;-52
2022/03/22 00:15:06;;;;;;;366.35;140.90;;;-0.60;99.90;;;;;;5074191;28;20031;-52
2022/03/22 00:17:32;;;;;;;358.30;136.35;;;-0.50;99.90;;;;;;5074133;28;20052;-52
2022/03/22 00:19:58;;;;;;;359.55;138.90;;;-0.40;99.90;;;;;;5073862;28;20528;-52
2022/03/22 00:22:25;;;;;;;419.45;148.90;;;-0.40;99.90;;;;;;5073882;28;20088;-52
2022/03/22 00:24:51;;;;;;;360.65;136.52;;;-0.40;99.90;;;;;;5074043;28;20081;-52
2022/03/22 00:27:17;;;;;;;338.88;131.95;;;-0.50;99.90;;;;;;5073993;28;20075;-52
2022/03/22 00:29:43;;;;;;;346.75;132.07;;;-0.50;99.90;;;;;;5073939;28;20162;-52
2022/03/22 00:32:09;;;;;;;370.90;133.48;;;-0.50;99.90;;;;;;5073839;28;20081;-52
2022/03/22 00:34:44;;;;;;;534.92;173.75;;;-0.50;99.90;;;;;;5073684;28;20094;-52
2022/03/22 00:37:17;;;;;;;636.97;224.00;;;-0.60;99.90;;;;;;5073894;28;20112;-52
2022/03/22 00:39:45;;;;;;;470.38;165.48;;;-0.70;99.90;;;;;;5073822;28;20028;-52
2022/03/22 00:42:12;;;;;;;493.30;170.95;;;-0.90;99.90;;;;;;5073778;28;20028;-52
2022/03/22 00:44:39;;;;;;;475.63;165.38;;;-0.90;99.90;;;;;;5073723;28;20043;-52
2022/03/22 00:47:08;;;;;;;608.42;220.60;;;-1.00;99.90;;;;;;5055677;28;20056;-52
2022/03/22 00:49:36;;;;;;;586.88;206.82;;;-1.00;99.90;;;;;;5073625;28;20033;-52
2022/03/22 00:52:04;;;;;;;462.08;161.73;;;-1.10;99.90;;;;;;5073835;28;20478;-52
2022/03/22 00:54:33;;;;;;;365.55;137.27;;;-1.10;99.90;;;;;;5055465;28;20037;-52
2022/03/22 00:56:59;;;;;;;356.13;132.77;;;-1.20;99.90;;;;;;5073531;28;20040;-52
2022/03/22 01:02:10;;;;;;;382.80;138.90;;;-1.20;99.90;;;;;;5074636;28;20028;-52
2022/03/22 01:04:36;;;;;;;409.25;142.45;;;-1.30;99.90;;;;;;5077224;28;20094;-52
2022/03/22 01:07:03;;;;;;;460.85;155.23;;;-1.40;99.90;;;;;;5077188;28;20029;-52
2022/03/22 01:09:29;;;;;;;389.13;137.85;;;-1.40;99.90;;;;;;5076700;28;20046;-52
2022/03/22 01:11:57;;;;;;;297.98;115.25;;;-1.40;99.90;;;;;;5070837;28;20043;-52
2022/03/22 01:14:27;;;;;;;236.00;99.47;;;-1.40;99.90;;;;;;5075639;28;20032;-52
2022/03/22 01:16:55;;;;;;;226.85;93.50;;;-1.40;99.90;;;;;;5077129;28;20424;-52
2022/03/22 01:19:22;;;;;;;254.20;103.88;;;-1.50;99.90;;;;;;5077049;28;20025;-52
2022/03/22 01:21:49;;;;;;;274.15;107.18;;;-1.50;99.90;;;;;;5076815;28;20031;-52
2022/03/22 01:24:15;;;;;;;261.42;105.30;;;-1.60;99.90;;;;;;5076848;28;20032;-52
2022/03/22 01:26:41;;;;;;;265.88;107.63;;;-1.60;99.90;;;;;;5076954;28;20028;-52
2022/03/22 01:29:07;;;;;;;265.83;101.93;;;-1.60;99.90;;;;;;5076620;28;20036;-52
2022/03/22 01:31:34;;;;;;;258.33;100.97;;;-1.70;99.90;;;;;;5076638;28;20056;-52
2022/03/22 01:34:00;;;;;;;263.17;102.88;;;-1.80;99.90;;;;;;5076549;28;20559;-52
2022/03/22 01:36:28;;;;;;;298.90;121.53;;;-1.90;99.90;;;;;;5076488;28;20024;-52
2022/03/22 01:38:54;;;;;;;288.42;115.68;;;-1.90;99.90;;;;;;5076442;28;20028;-52
2022/03/22 01:41:20;;;;;;;267.40;106.82;;;-1.80;99.90;;;;;;5076627;28;20033;-52
2022/03/22 01:43:47;;;;;;;293.88;109.50;;;-1.70;99.90;;;;;;5076428;28;20028;-52
2022/03/22 01:46:13;;;;;;;295.48;110.82;;;-1.70;99.90;;;;;;5076459;28;20040;-52
2022/03/22 01:48:40;;;;;;;298.67;113.38;;;-1.70;99.90;;;;;;5076452;28;20055;-52
2022/03/22 01:51:09;;;;;;;330.38;121.63;;;-1.70;99.90;;;;;;5076251;28;20036;-52
2022/03/22 01:53:36;;;;;;;349.00;126.78;;;-1.80;99.90;;;;;;5068530;28;20112;-52
2022/03/22 01:56:02;;;;;;;326.15;122.18;;;-1.90;99.90;;;;;;5076232;28;20036;-52
2022/03/22 01:58:27;;;;;;;264.02;106.10;;;-1.90;99.90;;;;;;5075941;28;20043;-52
2022/03/22 02:05:51;;;;;;;315.75;125.22;;;-1.90;99.90;;;;;;5076126;28;20021;-52
2022/03/22 02:06:35;;;;;;;269.45;108.30;;;-1.90;99.90;;;;;;5075895;28;20561;-52
2022/03/22 02:09:01;;;;;;;;;;;-1.90;99.90;;;;;;5076281;28;20029;-52
2022/03/22 02:11:27;;;;;;;290.35;112.65;;;-1.80;99.90;;;;;;5075955;28;19931;-52
2022/03/22 02:13:53;;;;;;;435.23;139.80;;;-1.70;99.90;;;;;;5074537;28;20079;-52
2022/03/22 02:16:19;;;;;;;503.95;151.77;;;-1.60;99.90;;;;;;5075921;28;20032;-52
2022/03/22 02:18:45;;;;;;;369.08;127.15;;;-1.60;99.90;;;;;;5075825;28;20029;-52
2022/03/22 02:21:15;;;;;;;294.10;110.43;;;-1.60;99.90;;;;;;5075342;28;20508;-52
2022/03/22 02:23:55;;;;;;;256.67;99.30;;;-1.60;99.90;;;;;;5075490;28;20115;-52
2022/03/22 02:26:22;;;;;;;243.63;94.07;;;-1.60;99.90;;;;;;5075358;28;20027;-52
2022/03/22 02:28:59;;;;;;;221.07;85.03;;;-1.60;99.90;;;;;;5075639;28;20257;-52
2022/03/22 02:31:27;;;;;;;218.45;87.57;;;-1.50;99.90;;;;;;5075377;28;20064;-52
2022/03/22 02:33:54;;;;;;;311.23;106.15;;;-1.40;99.90;;;;;;5075042;28;20044;-52
2022/03/22 02:36:20;;;;;;;299.35;108.82;;;-1.50;99.90;;;;;;5075602;28;20032;-52
2022/03/22 02:38:47;;;;;;;289.80;106.28;;;-1.60;99.90;;;;;;5075405;28;20029;-52
2022/03/22 02:41:16;;;;;;;224.77;87.85;;;-1.60;99.90;;;;;;5075185;28;20079;-52
2022/03/22 02:43:43;;;;;;;200.95;76.68;;;-1.70;99.90;;;;;;5075285;28;20034;-52
2022/03/22 02:46:09;;;;;;;173.10;71.65;;;-1.80;99.90;;;;;;5075136;28;20031;-52
2022/03/22 02:48:35;;;;;;;161.48;69.43;;;-1.90;99.90;;;;;;5075162;28;20029;-52
2022/03/22 02:51:01;;;;;;;164.68;69.32;;;-1.90;99.90;;;;;;5075140;28;20098;-52
2022/03/22 02:53:27;;;;;;;170.15;69.90;;;-1.90;99.90;;;;;;5075129;28;20037;-52
2022/03/22 02:55:53;;;;;;;192.07;79.53;;;-1.90;99.90;;;;;;5074840;28;20493;-52
2022/03/22 02:58:19;;;;;;;197.30;78.13;;;-2.00;99.90;;;;;;5074958;28;20040;-52
2022/03/22 03:00:45;;;;;;;206.43;80.85;;;-2.00;99.90;;;;;;5074657;28;20033;-52
2022/03/22 03:03:11;;;;;;;205.25;80.63;;;-2.10;99.90;;;;;;5074800;28;20463;-52
2022/03/22 03:05:38;;;;;;;174.07;70.38;;;-2.30;99.90;;;;;;5075103;28;20016;-52
2022/03/22 03:08:06;;;;;;;193.68;77.00;;;-2.30;99.90;;;;;;5075046;28;20024;-52
2022/03/22 03:10:33;;;;;;;186.35;73.38;;;-2.30;99.90;;;;;;5074707;28;20036;-52
2022/03/22 03:13:05;;;;;;;173.45;75.88;;;-2.20;99.90;;;;;;5059872;28;20116;-52
2022/03/22 03:15:32;;;;;;;196.93;77.18;;;-2.30;99.90;;;;;;5054625;28;20025;-52
2022/03/22 03:17:58;;;;;;;194.43;78.90;;;-2.40;99.90;;;;;;5054550;28;20037;-52
2022/03/22 03:20:25;;;;;;;201.05;82.07;;;-2.40;99.90;;;;;;5054512;28;20033;-52
2022/03/22 03:22:51;;;;;;;185.85;80.20;;;-2.40;99.90;;;;;;5054437;28;20402;-52
2022/03/22 03:25:18;;;;;;;182.98;76.00;;;-2.40;99.90;;;;;;5054154;28;20053;-52
2022/03/22 03:27:44;;;;;;;190.45;77.82;;;-2.50;99.90;;;;;;5054619;28;20029;-52
2022/03/22 03:30:11;;;;;;;194.18;80.28;;;-2.50;99.90;;;;;;5054511;28;20499;-52
2022/03/22 03:32:36;;;;;;;191.77;75.93;;;-2.50;99.90;;;;;;5054308;28;20025;-52
2022/03/22 03:35:04;;;;;;;182.30;77.38;;;-2.50;99.90;;;;;;5054238;28;20166;-52
2022/03/22 03:37:37;;;;;;;185.50;77.65;;;-2.60;99.90;;;;;;5054430;28;20082;-52
2022/03/22 03:40:04;;;;;;;189.70;76.82;;;-2.60;99.90;;;;;;5054356;28;20036;-52
2022/03/22 03:42:30;;;;;;;185.60;79.60;;;-2.70;99.90;;;;;;5054339;28;20025;-52
2022/03/22 03:47:42;;;;;;;191.30;76.55;;;-2.70;99.90;;;;;;5054343;28;20300;-52
2022/03/22 03:50:09;;;;;;;190.18;79.25;;;-2.90;99.90;;;;;;5053960;28;20021;-52
2022/03/22 03:52:38;;;;;;;187.50;78.18;;;-3.00;99.90;;;;;;5054370;28;20035;-52
2022/03/22 03:55:06;;;;;;;191.90;79.53;;;-2.90;99.90;;;;;;5054247;28;20037;-52
2022/03/22 03:57:32;;;;;;;201.82;83.28;;;-2.90;99.90;;;;;;5054177;28;20398;-52
2022/03/22 03:59:59;;;;;;;232.15;90.88;;;-2.90;99.90;;;;;;5054106;28;20033;-52
2022/03/22 04:02:25;;;;;;;204.68;83.40;;;-2.90;99.90;;;;;;5053895;28;20036;-52
2022/03/22 04:04:52;;;;;;;215.95;86.05;;;-3.00;99.90;;;;;;5054286;28;20074;-52
2022/03/22 04:07:24;;;;;;;211.38;84.10;;;-3.00;99.90;;;;;;5054158;28;20033;-52
2022/03/22 04:09:50;;;;;;;200.63;82.00;;;-3.00;99.90;;;;;;5054168;28;20490;-52
2022/03/22 04:12:16;;;;;;;210.05;80.00;;;-3.00;99.90;;;;;;5053992;28;20028;-52
2022/03/22 04:14:43;;;;;;;190.63;80.50;;;-3.00;99.90;;;;;;5053832;28;20041;-52
2022/03/22 04:17:09;;;;;;;173.52;72.93;;;-3.00;99.90;;;;;;5054151;28;20107;-52
2022/03/22 04:19:36;;;;;;;163.52;67.72;;;-3.00;99.90;;;;;;5053989;28;20388;-52
2022/03/22 04:22:08;;;;;;;158.65;65.93;;;-3.00;99.90;;;;;;5053922;28;20033;-52
2022/03/22 04:24:34;;;;;;;151.73;63.20;;;-3.00;99.90;;;;;;5054101;28;20032;-52
2022/03/22 04:32:42;;;;;;;196.48;76.53;;;-3.00;99.90;;;;;;5053751;28;20395;-52
2022/03/22 04:35:10;;;;;;;318.13;114.22;;;-3.00;99.90;;;;;;5073323;28;20381;-52
2022/03/22 04:37:37;;;;;;;319.98;113.38;;;-3.00;99.90;;;;;;5076309;28;20440;-52
2022/03/22 04:40:04;;;;;;;308.50;105.43;;;-2.90;99.90;;;;;;5077679;28;20386;-52
2022/03/22 04:42:31;;;;;;;242.02;93.20;;;-3.00;99.90;;;;;;5076283;28;20025;-52
2022/03/22 04:44:57;;;;;;;243.80;90.85;;;-3.10;99.90;;;;;;5077266;28;20048;-52
2022/03/22 04:47:24;;;;;;;214.13;79.60;;;-3.10;99.90;;;;;;5077675;28;20063;-52
2022/03/22 04:49:49;;;;;;;184.68;69.80;;;-3.20;99.90;;;;;;5077375;28;20025;-52
2022/03/22 04:57:44;;;;;;;192.57;76.32;;;-3.30;99.90;;;;;;5077149;28;20029;-52
2022/03/22 05:00:11;;;;;;;216.40;82.85;;;-3.20;99.90;;;;;;5077272;28;20028;-52
2022/03/22 05:02:37;;;;;;;165.25;66.38;;;-3.30;99.90;;;;;;5077197;28;20017;-52
2022/03/22 05:05:03;;;;;;;178.93;68.30;;;-3.20;99.90;;;;;;5077184;28;20106;-52
2022/03/22 05:07:29;;;;;;;168.23;66.28;;;-3.20;99.90;;;;;;5077212;28;20530;-52
2022/03/22 05:09:55;;;;;;;174.57;68.95;;;-3.10;99.90;;;;;;5076992;28;20060;-52
2022/03/22 05:12:21;;;;;;;182.82;69.95;;;-2.90;99.90;;;;;;5076896;28;20394;-52
2022/03/22 05:14:50;;;;;;;169.70;66.70;;;-2.80;99.90;;;;;;5077050;28;20085;-52
2022/03/22 05:17:21;;;;;;;180.07;73.10;;;-2.60;99.90;;;;;;5077430;28;20032;-52
2022/03/22 05:19:51;;;;;;;191.95;79.68;;;-2.30;99.90;;;;;;5076851;28;20032;-52
2022/03/22 05:22:18;;;;;;;172.20;69.03;;;-2.00;99.90;;;;;;5077005;28;20025;-52
2022/03/22 05:24:45;;;;;;;165.77;64.47;;;-1.80;99.90;;;;;;5076751;28;20536;-52
2022/03/22 05:27:13;;;;;;;157.35;63.30;;;-1.70;99.90;;;;;;5077064;28;20035;-52
2022/03/22 05:29:39;;;;;;;152.68;62.22;;;-1.60;99.90;;;;;;5076739;28;20060;-52
2022/03/22 05:32:05;;;;;;;158.35;62.72;;;-1.50;99.90;;;;;;5076541;28;20030;-52
2022/03/22 05:34:31;;;;;;;146.27;60.90;;;-1.40;99.90;;;;;;5076568;28;20045;-52
2022/03/22 05:36:58;;;;;;;165.15;65.40;;;-1.40;99.90;;;;;;5076286;28;20033;-52
2022/03/22 05:39:24;;;;;;;162.48;67.40;;;-1.30;99.90;;;;;;5076495;28;20394;-52
2022/03/22 05:41:51;;;;;;;178.40;72.85;;;-1.30;99.90;;;;;;5077003;28;20028;-52
2022/03/22 05:44:20;;;;;;;176.90;73.47;;;-1.10;99.90;;;;;;5076460;28;20063;-52
2022/03/22 05:46:46;;;;;;;176.02;73.28;;;-1.00;99.90;;;;;;5076369;28;20029;-52
2022/03/22 05:49:13;;;;;;;176.93;75.85;;;-0.70;99.90;;;;;;5075997;28;20102;-52
2022/03/22 05:51:40;;;;;;;190.60;74.80;;;-0.50;99.90;;;;;;5076265;28;20024;-52
2022/03/22 05:54:06;;;;;;;180.07;76.30;;;-0.30;99.90;;;;;;5076403;28;20040;-52
2022/03/22 05:56:32;;;;;;;180.00;78.70;;;0.00;99.90;;;;;;5076269;28;20035;-52
2022/03/22 05:58:59;;;;;;;208.98;84.55;;;0.10;99.90;;;;;;5076664;28;20430;-52
2022/03/22 06:01:29;;;;;;;208.48;86.70;;;0.20;99.90;;;;;;5076501;28;20040;-52
2022/03/22 06:03:56;;;;;;;164.30;69.53;;;0.40;99.90;;;;;;5077007;28;20111;-52
2022/03/22 06:06:23;;;;;;;224.60;91.93;;;0.70;99.90;;;;;;5076857;28;20482;-52
2022/03/22 06:08:50;;;;;;;202.68;89.18;;;0.80;99.90;;;;;;5076784;28;20031;-52
2022/03/22 06:11:17;;;;;;;235.75;99.68;;;1.10;99.90;;;;;;5076822;28;20120;-52
2022/03/22 06:13:43;;;;;;;266.30;109.13;;;1.30;99.90;;;;;;5076639;28;20025;-52
2022/03/22 06:16:09;;;;;;;247.95;104.93;;;1.60;99.90;;;;;;5076178;28;20044;-52
2022/03/22 06:18:35;;;;;;;244.10;101.63;;;1.80;99.90;;;;;;5065025;28;20064;-53
2022/03/22 06:21:02;;;;;;;220.30;97.88;;;2.10;99.90;;;;;;5065382;28;20063;-52
2022/03/22 06:23:28;;;;;;;240.20;100.88;;;2.20;99.80;;;;;;5072359;28;20039;-53
2022/03/22 06:25:54;;;;;;;231.23;99.13;;;2.50;99.90;;;;;;5072750;28;20029;-53
2022/03/22 06:28:20;;;;;;;213.20;95.07;;;2.50;99.30;;;;;;5061630;28;20031;-52
2022/03/22 06:30:46;;;;;;;234.50;95.25;;;2.70;98.80;;;;;;5070187;28;20416;-53
2022/03/22 06:33:16;;;;;;;238.68;107.22;;;3.00;98.20;;;;;;5068303;28;20040;-53
2022/03/22 06:35:47;;;;;;;256.98;110.00;;;3.00;97.60;;;;;;5070222;28;20076;-53
2022/03/22 06:38:13;;;;;;;270.98;113.30;;;3.30;98.00;;;;;;5070339;28;20666;-53
2022/03/22 06:40:39;;;;;;;268.90;118.03;;;3.50;98.00;;;;;;5074574;28;20044;-52
2022/03/22 06:43:07;;;;;;;263.92;115.75;;;3.90;97.40;;;;;;5064769;28;20390;-53
2022/03/22 06:45:34;;;;;;;255.50;114.20;;;4.00;96.70;;;;;;5059784;28;20158;-53
2022/03/22 06:48:01;;;;;;;265.35;119.88;;;4.00;96.20;;;;;;5057446;28;20025;-52
2022/03/22 07:01:55;;;;;;;242.20;103.72;;;5.00;95.60;;;;;;5052140;28;20081;-53
2022/03/22 07:04:21;;;;;;;212.05;96.07;;;5.50;94.30;;;;;;5071700;28;20029;-53
2022/03/22 07:06:47;;;;;;;196.93;88.68;;;5.70;91.80;;;;;;5065866;28;20162;-53
2022/03/22 07:09:13;;;;;;;192.75;88.97;;;5.80;90.90;;;;;;5070409;28;20059;-53
2022/03/22 07:11:51;;;;;;;193.02;86.82;;;6.10;91.70;;;;;;5074136;28;20028;-52
2022/03/22 07:14:23;;;;;;;196.38;85.65;;;6.40;91.20;;;;;;5075088;28;20348;-52
2022/03/22 07:16:49;;;;;;;155.05;75.35;;;6.60;87.40;;;;;;5068706;28;20032;-53
2022/03/22 07:19:17;;;;;;;157.18;74.45;;;6.70;87.60;;;;;;5063705;28;20041;-54
2022/03/22 07:21:44;;;;;;;164.15;75.50;;;6.60;86.60;;;;;;5061941;28;20032;-52
2022/03/22 07:24:11;;;;;;;152.40;72.30;;;7.10;80.50;;;;;;5060224;28;20028;-52
2022/03/22 07:26:38;;;;;;;163.13;74.85;;;7.30;69.30;;;;;;5064936;28;20028;-52
2022/03/22 07:29:04;;;;;;;166.63;76.95;;;7.00;80.60;;;;;;5074791;28;20055;-52
2022/03/22 07:31:31;;;;;;;165.32;77.13;;;7.50;78.30;;;;;;5074181;28;20116;-52
2022/03/22 07:33:57;;;;;;;173.77;82.00;;;7.60;76.40;;;;;;5073552;28;20096;-52
2022/03/22 07:36:23;;;;;;;177.73;85.00;;;8.00;71.70;;;;;;5073967;28;20024;-52
2022/03/22 07:38:49;;;;;;;163.68;76.07;;;8.00;76.10;;;;;;5074226;28;20020;-52
2022/03/22 07:41:15;;;;;;;186.25;82.13;;;8.20;66.20;;;;;;5071578;28;20024;-52
2022/03/22 07:43:41;;;;;;;155.25;73.43;;;7.90;72.20;;;;;;5063591;28;20032;-53
2022/03/22 07:46:08;;;;;;;148.25;68.85;;;8.30;64.50;;;;;;5053916;28;20085;-53
2022/03/22 07:48:34;;;;;;;144.60;67.80;;;8.40;64.70;;;;;;5079020;28;20032;-52
2022/03/22 07:53:45;;;;;;;136.20;65.43;;;8.70;65.60;;;;;;5066900;28;20029;-52
2022/03/22 07:56:12;;;;;;;138.98;63.90;;;9.10;58.30;;;;;;5080039;28;20032;-52
2022/03/22 07:58:38;;;;;;;142.60;63.10;;;9.10;56.40;;;;;;5078783;28;20635;-53
2022/03/22 08:01:04;;;;;;;135.13;61.13;;;9.40;54.60;;;;;;5080890;28;20386;-52
2022/03/22 08:03:30;;;;;;;138.98;60.63;;;10.00;51.30;;;;;;5082390;28;20369;-52
2022/03/22 08:05:56;;;;;;;135.38;59.75;;;10.00;50.60;;;;;;5082733;28;20024;-53
2022/03/22 08:08:22;;;;;;;124.90;57.65;;;10.20;49.30;;;;;;5083003;28;20036;-52
2022/03/22 08:10:48;;;;;;;126.05;58.17;;;10.30;47.10;;;;;;5084351;28;20069;-53
2022/03/22 08:13:14;;;;;;;127.85;59.90;;;10.20;48.20;;;;;;5087891;28;20024;-52
2022/03/22 08:15:41;;;;;;;130.10;60.45;;;9.60;46.80;;;;;;5081087;28;20031;-53
2022/03/22 08:18:07;;;;;;;141.07;64.88;;;10.40;46.90;;;;;;5077378;28;20024;-53
2022/03/22 08:20:33;;;;;;;145.52;69.38;;;10.80;47.70;;;;;;5076102;28;20107;-52
2022/03/22 08:23:04;;;;;;;145.80;73.38;;;11.00;47.20;;;;;;5081200;28;20054;-52
2022/03/22 08:25:29;;;;;;;;;;;11.10;45.40;;;;;;5098755;28;20512;-53
2022/03/22 08:27:57;;;;;;;141.68;67.75;;;11.70;45.80;;;;;;5094849;28;19924;-53
2022/03/22 08:30:23;;;;;;;130.40;62.17;;;11.80;43.60;;;;;;5082169;28;20020;-53
2022/03/22 08:32:51;;;;;;;138.77;70.50;;;12.00;41.20;;;;;;5088287;28;20424;-53
2022/03/22 08:35:18;;;;;;;137.73;69.50;;;11.60;39.60;;;;;;5076939;28;20401;-53
2022/03/22 08:37:45;;;;;;;131.93;65.45;;;12.20;41.20;;;;;;5061608;28;20028;-53
2022/03/22 08:40:16;;;;;;;122.30;59.60;;;13.10;39.70;;;;;;5071989;28;20028;-53
2022/03/22 08:42:43;;;;;;;130.98;63.72;;;12.90;36.50;;;;;;5075474;28;20029;-53
2022/03/22 08:45:14;;;;;;;113.45;61.47;;;12.60;38.40;;;;;;5075609;28;20115;-53
2022/03/22 08:47:41;;;;;;;132.30;60.20;;;13.00;37.40;;;;;;5097907;28;20035;-53
2022/03/22 08:50:10;;;;;;;126.35;61.53;;;13.50;37.60;;;;;;5097661;28;20359;-53
2022/03/22 08:52:37;;;;;;;110.32;59.30;;;13.70;36.20;;;;;;5098085;28;20071;-53
2022/03/22 08:55:04;;;;;;;114.63;59.00;;;13.70;35.20;;;;;;5098198;28;20036;-53
2022/03/22 08:57:31;;;;;;;119.20;60.15;;;13.50;34.70;;;;;;5098019;28;20028;-53
2022/03/22 08:59:58;;;;;;;116.85;60.70;;;13.20;34.30;;;;;;5080357;28;20021;-53
2022/03/22 09:02:24;;;;;;;110.45;60.60;;;13.80;35.20;;;;;;5076713;28;20024;-53
2022/03/22 09:07:34;;;;;;;103.90;59.55;;;14.30;34.20;;;;;;5090351;28;20063;-53
2022/03/22 09:10:00;;;;;;;121.25;62.42;;;14.50;33.20;;;;;;5097267;28;20028;-53
2022/03/22 09:12:26;;;;;;;113.47;61.05;;;14.70;32.90;;;;;;5086616;28;20028;-53
2022/03/22 09:14:53;;;;;;;106.85;56.25;;;15.10;31.60;;;;;;5075882;28;20039;-53
2022/03/22 09:17:20;;;;;;;113.28;58.05;;;15.60;30.90;;;;;;5076593;28;20032;-54
2022/03/22 09:19:46;;;;;;;113.47;57.20;;;15.00;30.00;;;;;;5076578;28;20500;-54
2022/03/22 09:22:14;;;;;;;105.30;56.47;;;15.40;30.70;;;;;;5075507;28;20032;-52
2022/03/22 09:24:40;;;;;;;105.40;57.95;;;15.70;30.10;;;;;;5074635;28;20470;-52
2022/03/22 09:27:06;;;;;;;107.50;58.85;;;15.50;29.30;;;;;;5076299;28;20028;-52
2022/03/22 09:29:32;;;;;;;99.70;56.75;;;15.70;29.60;;;;;;5076284;28;20024;-52
2022/03/22 09:31:58;;;;;;;106.55;55.22;;;15.70;29.30;;;;;;5076073;28;20044;-52
2022/03/22 09:34:25;;;;;;;108.85;53.85;;;15.00;29.20;;;;;;5075684;28;20049;-52
2022/03/22 09:36:52;;;;;;;122.28;54.83;;;15.20;29.30;;;;;;5076361;28;20036;-52
2022/03/22 09:39:19;;;;;;;93.63;49.90;;;15.80;29.30;;;;;;5076032;28;20035;-52
2022/03/22 09:41:49;;;;;;;99.75;52.88;;;15.90;28.60;;;;;;5075990;28;20481;-52
2022/03/22 09:44:19;;;;;;;101.90;55.25;;;15.80;28.40;;;;;;5077152;28;20039;-52
2022/03/22 09:46:49;;;;;;;111.80;52.75;;;15.80;28.40;;;;;;5071574;28;20021;-52
2022/03/22 09:49:16;;;;;;;100.38;53.15;;;16.10;28.30;;;;;;5073263;28;20040;-52
2022/03/22 09:51:50;;;;;;;101.45;54.08;;;16.30;28.20;;;;;;5069694;28;20366;-52
2022/03/22 09:54:19;;;;;;;96.68;56.97;;;16.90;27.80;;;;;;5056793;28;20120;-52
2022/03/22 09:56:46;;;;;;;110.53;56.72;;;17.00;27.20;;;;;;5063781;28;20028;-53
2022/03/22 09:59:14;;;;;;;97.03;54.65;;;17.30;27.50;;;;;;5076127;28;20040;-53
2022/03/22 10:01:41;;;;;;;105.07;59.15;;;17.30;26.90;;;;;;5062607;28;20044;-52
2022/03/22 10:04:13;;;;;;;98.50;56.42;;;17.00;26.80;;;;;;5069743;28;20039;-52
2022/03/22 10:06:48;;;;;;;105.05;56.70;;;17.20;26.70;;;;;;5074569;28;20032;-53
2022/03/22 10:09:14;;;;;;;103.13;55.95;;;17.80;26.60;;;;;;5064650;28;20039;-52
2022/03/22 10:11:43;;;;;;;109.25;58.08;;;18.10;25.90;;;;;;5060648;28;20029;-52
2022/03/22 10:14:11;;;;;;;105.10;57.60;;;17.80;26.10;;;;;;5075774;28;20067;-52
2022/03/22 10:16:49;;;;;;;109.25;61.22;;;17.60;25.50;;;;;;5075347;28;20499;-53
2022/03/22 10:19:25;;;;;;;110.75;60.88;;;17.70;25.60;;;;;;5082973;28;20028;-53
2022/03/22 10:21:54;;;;;;;112.28;59.67;;;17.00;25.40;;;;;;5093926;28;20020;-52
2022/03/22 10:24:21;;;;;;;111.78;60.28;;;17.00;25.90;;;;;;5081965;28;20063;-53
2022/03/22 10:26:47;;;;;;;131.65;62.10;;;16.80;25.90;;;;;;5076337;28;20024;-53
2022/03/22 10:29:14;;;;;;;118.38;61.28;;;16.50;26.80;;;;;;5074724;28;20044;-53
2022/03/22 10:31:44;;;;;;;95.15;52.47;;;17.10;27.00;;;;;;5074750;28;20036;-53
2022/03/22 10:34:13;;;;;;;106.32;58.92;;;17.20;26.20;;;;;;5088491;28;20114;-53
2022/03/22 10:36:40;;;;;;;97.30;55.47;;;17.10;26.10;;;;;;5095475;28;20032;-53
2022/03/22 10:39:09;;;;;;;83.90;50.45;;;16.80;26.10;;;;;;5094730;28;20028;-53
2022/03/22 10:41:41;;;;;;;98.00;51.88;;;16.90;26.10;;;;;;5094947;28;20485;-53
2022/03/22 10:44:13;;;;;;;102.22;49.95;;;17.20;26.30;;;;;;5094362;28;20024;-53
2022/03/22 10:46:42;;;;;;;61.22;32.20;;;17.70;26.10;;;;;;5091722;28;20032;-53
2022/03/22 10:49:13;;;;;;;38.88;23.63;;;17.60;24.50;;;;;;5081928;28;20056;-53
2022/03/22 10:51:48;;;;;;;40.00;25.65;;;17.70;24.30;;;;;;5074791;28;20040;-53
2022/03/22 10:54:17;;;;;;;46.72;28.23;;;17.50;23.90;;;;;;5073494;28;20461;-53
2022/03/22 10:56:55;;;;;;;42.38;27.33;;;18.10;23.60;;;;;;5070390;28;20380;-53
2022/03/22 10:59:26;;;;;;;35.85;23.73;;;18.80;24.10;;;;;;5071266;28;20041;-53
2022/03/22 11:01:53;;;;;;;36.60;23.30;;;19.30;23.30;;;;;;5070746;28;20021;-53
2022/03/22 11:04:19;;;;;;;23.30;14.90;;;20.00;22.60;;;;;;5071601;28;20355;-53
2022/03/22 11:06:47;;;;;;;25.30;14.98;;;20.40;22.30;;;;;;5071508;28;20039;-53
2022/03/22 11:09:14;;;;;;;20.77;13.10;;;19.90;21.20;;;;;;5065522;28;20064;-53
2022/03/22 11:11:41;;;;;;;26.75;15.25;;;19.30;20.40;;;;;;5071065;28;20043;-53
2022/03/22 11:14:07;;;;;;;43.83;17.65;;;19.20;20.60;;;;;;5071258;28;20025;-53
2022/03/22 11:16:35;;;;;;;21.05;14.30;;;19.60;20.50;;;;;;5071025;28;20489;-53
2022/03/22 11:19:03;;;;;;;36.15;15.80;;;19.00;20.40;;;;;;5071141;28;20025;-53
2022/03/22 11:21:30;;;;;;;26.83;14.48;;;18.90;21.40;;;;;;5070664;28;20164;-53
2022/03/22 11:24:10;;;;;;;27.52;15.85;;;20.10;22.10;;;;;;5051165;28;20128;-53
2022/03/22 11:26:41;;;;;;;19.52;13.82;;;20.30;20.80;;;;;;5052620;28;20116;-53
2022/03/22 11:29:09;;;;;;;24.17;14.27;;;20.10;20.70;;;;;;5070945;28;20043;-53
2022/03/22 11:31:36;;;;;;;21.00;13.85;;;21.10;21.60;;;;;;5071736;28;20027;-53
2022/03/22 11:34:09;;;;;;;45.28;17.20;;;21.30;19.50;;;;;;5070350;28;20044;-53
2022/03/22 11:36:45;;;;;;;32.75;15.75;;;21.20;19.90;;;;;;5066793;28;20032;-53
2022/03/22 11:39:19;;;;;;;22.73;12.75;;;20.80;20.20;;;;;;5070047;28;20136;-53
2022/03/22 11:44:35;;;;;;;36.50;18.15;;;21.60;20.40;;;;;;5060187;28;20021;-53
2022/03/22 11:47:12;;;;;;;29.13;15.30;;;21.60;19.80;;;;;;5062487;28;20028;-53
2022/03/22 11:49:58;;;;;;;21.40;13.75;;;21.70;19.90;;;;;;5057919;28;20434;-53
2022/03/22 11:52:26;;;;;;;21.08;13.15;;;21.80;19.80;;;;;;5060942;28;20027;-53
2022/03/22 11:55:07;;;;;;;26.85;14.35;;;21.80;18.40;;;;;;5068859;28;20057;-53
2022/03/22 11:58:00;;;;;;;25.08;12.73;;;21.10;18.10;;;;;;5060431;28;20035;-53
2022/03/22 12:00:55;;;;;;;46.35;15.77;;;21.00;18.00;;;;;;5061708;28;20025;-53
2022/03/22 12:03:28;;;;;;;24.05;12.98;;;21.40;18.70;;;;;;5064311;28;20040;-53
2022/03/22 12:05:54;;;;;;;24.08;13.43;;;21.20;18.30;;;;;;5060059;28;20025;-53
2022/03/22 12:08:20;;;;;;;16.48;11.43;;;21.60;18.50;;;;;;5046237;28;20108;-53
2022/03/22 12:10:54;;;;;;;30.85;14.55;;;21.50;18.30;;;;;;5037922;28;20042;-53
2022/03/22 12:13:23;;;;;;;26.27;11.88;;;21.90;19.20;;;;;;5054352;28;20379;-53
2022/03/22 12:16:00;;;;;;;24.80;12.57;;;21.90;18.10;;;;;;5048548;28;20079;-53
2022/03/22 12:18:32;;;;;;;19.15;11.75;;;22.20;17.80;;;;;;5047661;28;20104;-53
2022/03/22 12:20:59;;;;;;;23.17;11.30;;;21.60;17.20;;;;;;5045088;28;20037;-53
2022/03/22 12:23:26;;;;;;;22.75;13.13;;;21.30;17.60;;;;;;5048723;28;20543;-53
2022/03/22 12:25:59;;;;;;;17.63;12.18;;;21.20;17.80;;;;;;5050427;28;20510;-53
2022/03/22 12:28:25;;;;;;;22.98;12.35;;;20.30;17.60;;;;;;5051551;28;20032;-53
2022/03/22 12:30:51;;;;;;;23.40;12.77;;;21.10;19.10;;;;;;5057137;28;20088;-53
2022/03/22 12:33:23;;;;;;;19.23;13.18;;;21.50;19.60;;;;;;5049950;28;20025;-53
2022/03/22 12:35:50;;;;;;;41.42;13.88;;;21.40;18.30;;;;;;5047150;28;20029;-53
2022/03/22 12:38:23;;;;;;;23.80;14.38;;;21.40;18.60;;;;;;5046141;28;20047;-53
2022/03/22 12:40:50;;;;;;;22.95;13.98;;;21.60;18.80;;;;;;5054631;28;20044;-53
2022/03/22 12:43:19;;;;;;;31.10;14.00;;;21.50;19.50;;;;;;5056108;28;20043;-53
2022/03/22 12:45:46;;;;;;;22.17;12.60;;;21.40;18.90;;;;;;5051164;28;20021;-53
2022/03/22 12:48:19;;;;;;;18.45;12.27;;;21.30;18.70;;;;;;5044132;28;20120;-53
2022/03/22 12:50:47;;;;;;;28.33;13.90;;;21.50;18.40;;;;;;5043494;28;20029;-53
2022/03/22 12:53:13;;;;;;;22.50;13.55;;;21.20;17.50;;;;;;5047510;28;20037;-53
2022/03/22 12:55:42;;;;;;;19.38;12.27;;;21.50;18.50;;;;;;5053548;28;20057;-53
2022/03/22 12:58:08;;;;;;;20.65;13.00;;;21.70;18.50;;;;;;5047077;28;20021;-53
2022/03/22 13:00:40;;;;;;;66.30;17.30;;;21.80;18.30;;;;;;5053866;28;20096;-53